Time,TemperatureF,DewpointF,PressureIn,WindDirection,WindDirectionDegrees,WindSpeedMPH,WindSpeedGustMPH,Humidity,HourlyPrecipIn,Conditions,Clouds,dailyrainin,SoftwareType,DateUTC
2013-07-19 00:01:00,62.0,56.0,-100.00,West,260,7.0,12.0,83,0.00,,,-99.99,,2013-07-19 08:01:00,
2013-07-19 00:11:00,62.0,56.0,-100.00,West,260,7.0,12.0,83,0.00,,,-99.99,,2013-07-19 08:11:00,
2013-07-19 00:21:00,62.0,56.0,-100.00,West,260,7.0,12.0,83,0.00,,,-99.99,,2013-07-19 08:21:00,
2013-07-19 00:30:00,60.0,55.0,-100.00,WSW,247,8.0,13.0,84,0.00,,,-99.99,,2013-07-19 08:30:00,
2013-07-19 00:52:00,60.0,55.0,-100.00,WSW,247,8.0,13.0,84,0.00,,,-99.99,,2013-07-19 08:52:00,
2013-07-19 01:02:00,60.0,55.0,-100.00,WSW,247,8.0,13.0,84,0.00,,,-99.99,,2013-07-19 09:02:00,
2013-07-19 01:11:00,60.0,55.0,-100.00,WSW,247,8.0,13.0,84,0.00,,,-99.99,,2013-07-19 09:11:00,
2013-07-19 01:22:00,60.0,55.0,-100.00,WSW,247,8.0,13.0,84,0.00,,,-99.99,,2013-07-19 09:22:00,
2013-07-19 01:30:00,60.0,55.0,-100.00,SW,236,14.0,20.0,84,0.00,,,-99.99,,2013-07-19 09:30:00,
2013-07-19 01:52:00,60.0,55.0,-100.00,SW,236,14.0,20.0,84,0.00,,,-99.99,,2013-07-19 09:52:00,
2013-07-19 02:01:00,60.0,55.0,-100.00,SW,236,14.0,20.0,84,0.00,,,-99.99,,2013-07-19 10:01:00,
2013-07-19 02:11:00,60.0,55.0,-100.00,SW,236,14.0,20.0,84,0.00,,,-99.99,,2013-07-19 10:11:00,
2013-07-19 02:22:00,60.0,55.0,-100.00,SW,236,14.0,20.0,84,0.00,,,-99.99,,2013-07-19 10:22:00,
2013-07-19 02:30:00,59.0,53.0,-100.00,SW,233,19.0,25.0,80,0.00,,,-99.99,,2013-07-19 10:30:00,
2013-07-19 02:52:00,59.0,53.0,-100.00,SW,233,19.0,25.0,80,0.00,,,-99.99,,2013-07-19 10:52:00,
2013-07-19 03:02:00,59.0,53.0,-100.00,SW,233,19.0,25.0,80,0.00,,,-99.99,,2013-07-19 11:02:00,
2013-07-19 03:12:00,59.0,53.0,-100.00,SW,233,19.0,25.0,80,0.00,,,-99.99,,2013-07-19 11:12:00,
2013-07-19 03:22:00,59.0,53.0,-100.00,SW,233,19.0,25.0,80,0.00,,,-99.99,,2013-07-19 11:22:00,
2013-07-19 03:30:00,59.0,52.0,-100.00,WSW,244,12.0,19.0,79,0.00,,,-99.99,,2013-07-19 11:30:00,
2013-07-19 04:01:00,59.0,52.0,-100.00,WSW,244,12.0,19.0,79,0.00,,,-99.99,,2013-07-19 12:01:00,
2013-07-19 04:12:00,59.0,52.0,-100.00,WSW,244,12.0,19.0,79,0.00,,,-99.99,,2013-07-19 12:12:00,
2013-07-19 04:22:00,59.0,52.0,-100.00,WSW,244,12.0,19.0,79,0.00,,,-99.99,,2013-07-19 12:22:00,
2013-07-19 04:30:00,57.0,52.0,-100.00,WSW,249,17.0,23.0,84,0.00,,,-99.99,,2013-07-19 12:30:00,
2013-07-19 05:02:00,57.0,52.0,-100.00,WSW,249,17.0,23.0,84,0.00,,,-99.99,,2013-07-19 13:02:00,
2013-07-19 05:11:00,57.0,52.0,-100.00,WSW,249,17.0,23.0,84,0.00,,,-99.99,,2013-07-19 13:11:00,
2013-07-19 05:22:00,57.0,52.0,-100.00,WSW,249,17.0,23.0,84,0.00,,,-99.99,,2013-07-19 13:22:00,
2013-07-19 05:30:00,56.0,52.0,-100.00,West,259,10.0,17.0,86,0.00,,,-99.99,,2013-07-19 13:30:00,
2013-07-19 06:02:00,56.0,52.0,-100.00,West,259,10.0,17.0,86,0.00,,,-99.99,,2013-07-19 14:02:00,
2013-07-19 06:22:00,56.0,52.0,-100.00,West,259,10.0,17.0,86,0.00,,,-99.99,,2013-07-19 14:22:00,
2013-07-19 06:30:00,57.0,52.0,-100.00,WSW,244,14.0,21.0,83,0.00,,,-99.99,,2013-07-19 14:30:00,
2013-07-19 07:02:00,57.0,52.0,-100.00,WSW,244,14.0,21.0,83,0.00,,,-99.99,,2013-07-19 15:02:00,
2013-07-19 07:11:00,57.0,52.0,-100.00,WSW,244,14.0,21.0,83,0.00,,,-99.99,,2013-07-19 15:11:00,
2013-07-19 07:22:00,57.0,52.0,-100.00,WSW,244,14.0,21.0,83,0.00,,,-99.99,,2013-07-19 15:22:00,
2013-07-19 07:30:00,57.0,52.0,-100.00,WSW,244,15.0,22.0,82,0.00,,,-99.99,,2013-07-19 15:30:00,
2013-07-19 08:01:00,57.0,52.0,-100.00,WSW,244,15.0,22.0,82,0.00,,,-99.99,,2013-07-19 16:01:00,
2013-07-19 08:11:00,57.0,52.0,-100.00,WSW,244,15.0,22.0,82,0.00,,,-99.99,,2013-07-19 16:11:00,
2013-07-19 08:22:00,57.0,52.0,-100.00,WSW,244,15.0,22.0,82,0.00,,,-99.99,,2013-07-19 16:22:00,
2013-07-19 08:30:00,57.0,51.0,-100.00,WSW,250,20.0,26.0,82,0.00,,,-99.99,,2013-07-19 16:30:00,
2013-07-19 08:53:00,57.0,51.0,-100.00,WSW,250,20.0,26.0,82,0.00,,,-99.99,,2013-07-19 16:53:00,
2013-07-19 09:02:00,57.0,51.0,-100.00,WSW,250,20.0,26.0,82,0.00,,,-99.99,,2013-07-19 17:02:00,
2013-07-19 09:12:00,57.0,51.0,-100.00,WSW,250,20.0,26.0,82,0.00,,,-99.99,,2013-07-19 17:12:00,
2013-07-19 09:22:00,57.0,51.0,-100.00,WSW,250,20.0,26.0,82,0.00,,,-99.99,,2013-07-19 17:22:00,
2013-07-19 09:30:00,56.0,50.0,-100.00,WSW,245,20.0,27.0,80,0.00,,,-99.99,,2013-07-19 17:30:00,
2013-07-19 10:01:00,56.0,50.0,-100.00,WSW,245,20.0,27.0,80,0.00,,,-99.99,,2013-07-19 18:01:00,
2013-07-19 10:11:00,56.0,50.0,-100.00,WSW,245,20.0,27.0,80,0.00,,,-99.99,,2013-07-19 18:11:00,
2013-07-19 10:21:00,56.0,50.0,-100.00,WSW,245,20.0,27.0,80,0.00,,,-99.99,,2013-07-19 18:21:00,
2013-07-19 10:30:00,56.0,50.0,-100.00,WSW,245,18.0,25.0,79,0.00,,,-99.99,,2013-07-19 18:30:00,
2013-07-19 11:11:00,56.0,50.0,-100.00,WSW,245,18.0,25.0,79,0.00,,,-99.99,,2013-07-19 19:11:00,
2013-07-19 11:21:00,56.0,50.0,-100.00,WSW,245,18.0,25.0,79,0.00,,,-99.99,,2013-07-19 19:21:00,
2013-07-19 11:30:00,56.0,50.0,-100.00,WSW,244,15.0,21.0,78,0.00,,,-99.99,,2013-07-19 19:30:00,
2013-07-19 12:01:00,56.0,50.0,-100.00,WSW,244,15.0,21.0,78,0.00,,,-99.99,,2013-07-19 20:01:00,
2013-07-19 12:11:00,56.0,50.0,-100.00,WSW,244,15.0,21.0,78,0.00,,,-99.99,,2013-07-19 20:11:00,
2013-07-19 12:22:00,56.0,50.0,-100.00,WSW,244,15.0,21.0,78,0.00,,,-99.99,,2013-07-19 20:22:00,
2013-07-19 12:30:00,57.0,50.0,-100.00,WSW,246,16.0,22.0,76,0.00,,,-99.99,,2013-07-19 20:30:00,
2013-07-19 13:01:00,57.0,50.0,-100.00,WSW,246,16.0,22.0,76,0.00,,,-99.99,,2013-07-19 21:01:00,
2013-07-19 13:11:00,57.0,50.0,-100.00,WSW,246,16.0,22.0,76,0.00,,,-99.99,,2013-07-19 21:11:00,
2013-07-19 13:21:00,57.0,50.0,-100.00,WSW,246,16.0,22.0,76,0.00,,,-99.99,,2013-07-19 21:21:00,
2013-07-19 13:30:00,57.0,50.0,-100.00,WSW,246,14.0,22.0,76,0.00,,,-99.99,,2013-07-19 21:30:00,
2013-07-19 14:01:00,57.0,50.0,-100.00,WSW,246,14.0,22.0,76,0.00,,,-99.99,,2013-07-19 22:01:00,
2013-07-19 14:11:00,57.0,50.0,-100.00,WSW,246,14.0,22.0,76,0.00,,,-99.99,,2013-07-19 22:11:00,
2013-07-19 14:21:00,57.0,50.0,-100.00,WSW,246,14.0,22.0,76,0.00,,,-99.99,,2013-07-19 22:21:00,
2013-07-19 14:30:00,57.0,50.0,-100.00,WSW,250,13.0,20.0,76,0.00,,,-99.99,,2013-07-19 22:30:00,
2013-07-19 15:11:00,57.0,50.0,-100.00,WSW,250,13.0,20.0,76,0.00,,,-99.99,,2013-07-19 23:11:00,
2013-07-19 15:21:00,57.0,50.0,-100.00,WSW,250,13.0,20.0,76,0.00,,,-99.99,,2013-07-19 23:21:00,
2013-07-19 15:30:00,58.0,51.0,-100.00,WSW,247,15.0,22.0,77,0.00,,,-99.99,,2013-07-19 23:30:00,
2013-07-19 16:21:00,58.0,51.0,-100.00,WSW,247,15.0,22.0,77,0.00,,,-99.99,,2013-07-20 00:21:00,
2013-07-19 16:30:00,58.0,51.0,-100.00,WSW,253,14.0,22.0,77,0.00,,,-99.99,,2013-07-20 00:30:00,
2013-07-19 17:01:00,58.0,51.0,-100.00,WSW,253,14.0,22.0,77,0.00,,,-99.99,,2013-07-20 01:01:00,
2013-07-19 17:11:00,58.0,51.0,-100.00,WSW,253,14.0,22.0,77,0.00,,,-99.99,,2013-07-20 01:11:00,
2013-07-19 17:22:00,58.0,51.0,-100.00,WSW,253,14.0,22.0,77,0.00,,,-99.99,,2013-07-20 01:22:00,
2013-07-19 17:30:00,58.0,50.0,-100.00,WSW,249,16.0,21.0,75,0.00,,,-99.99,,2013-07-20 01:30:00,
2013-07-19 18:01:00,58.0,50.0,-100.00,WSW,249,16.0,21.0,75,0.00,,,-99.99,,2013-07-20 02:01:00,
2013-07-19 18:11:00,58.0,50.0,-100.00,WSW,249,16.0,21.0,75,0.00,,,-99.99,,2013-07-20 02:11:00,
2013-07-19 18:21:00,58.0,50.0,-100.00,WSW,249,16.0,21.0,75,0.00,,,-99.99,,2013-07-20 02:21:00,
2013-07-19 18:30:00,59.0,51.0,-100.00,WSW,251,15.0,19.0,74,0.00,,,-99.99,,2013-07-20 02:30:00,
2013-07-19 19:02:00,59.0,51.0,-100.00,WSW,251,15.0,19.0,74,0.00,,,-99.99,,2013-07-20 03:02:00,
2013-07-19 19:11:00,59.0,51.0,-100.00,WSW,251,15.0,19.0,74,0.00,,,-99.99,,2013-07-20 03:11:00,
2013-07-19 19:22:00,59.0,51.0,-100.00,WSW,251,15.0,19.0,74,0.00,,,-99.99,,2013-07-20 03:22:00,
2013-07-19 19:30:00,59.0,51.0,-100.00,WSW,248,15.0,20.0,75,0.00,,,-99.99,,2013-07-20 03:30:00,
2013-07-19 19:53:00,59.0,51.0,-100.00,WSW,248,15.0,20.0,75,0.00,,,-99.99,,2013-07-20 03:53:00,
2013-07-19 20:01:00,59.0,51.0,-100.00,WSW,248,15.0,20.0,75,0.00,,,-99.99,,2013-07-20 04:01:00,
2013-07-19 20:11:00,59.0,51.0,-100.00,WSW,248,15.0,20.0,75,0.00,,,-99.99,,2013-07-20 04:11:00,
2013-07-19 20:22:00,59.0,51.0,-100.00,WSW,248,15.0,20.0,75,0.00,,,-99.99,,2013-07-20 04:22:00,
2013-07-19 20:30:00,58.0,51.0,-100.00,WSW,246,15.0,19.0,78,0.00,,,-99.99,,2013-07-20 04:30:00,
2013-07-19 21:02:00,58.0,51.0,-100.00,WSW,246,15.0,19.0,78,0.00,,,-99.99,,2013-07-20 05:02:00,
2013-07-19 21:11:00,58.0,51.0,-100.00,WSW,246,15.0,19.0,78,0.00,,,-99.99,,2013-07-20 05:11:00,
2013-07-19 21:22:00,58.0,51.0,-100.00,WSW,246,15.0,19.0,78,0.00,,,-99.99,,2013-07-20 05:22:00,
2013-07-19 21:30:00,58.0,51.0,-100.00,WSW,248,12.0,15.0,78,0.00,,,-99.99,,2013-07-20 05:30:00,
2013-07-19 22:01:00,58.0,51.0,-100.00,WSW,248,12.0,15.0,78,0.00,,,-99.99,,2013-07-20 06:01:00,
2013-07-19 22:11:00,58.0,51.0,-100.00,WSW,248,12.0,15.0,78,0.00,,,-99.99,,2013-07-20 06:11:00,
2013-07-19 22:21:00,58.0,51.0,-100.00,WSW,248,12.0,15.0,78,0.00,,,-99.99,,2013-07-20 06:21:00,
2013-07-19 22:30:00,58.0,51.0,-100.00,WSW,248,13.0,18.0,79,0.00,,,-99.99,,2013-07-20 06:30:00,
2013-07-19 22:52:00,58.0,51.0,-100.00,WSW,248,13.0,18.0,79,0.00,,,-99.99,,2013-07-20 06:52:00,
2013-07-19 23:01:00,58.0,51.0,-100.00,WSW,248,13.0,18.0,79,0.00,,,-99.99,,2013-07-20 07:01:00,
2013-07-19 23:12:00,58.0,51.0,-100.00,WSW,248,13.0,18.0,79,0.00,,,-99.99,,2013-07-20 07:12:00,
2013-07-19 23:22:00,58.0,51.0,-100.00,WSW,248,13.0,18.0,79,0.00,,,-99.99,,2013-07-20 07:22:00,
2013-07-19 23:30:00,57.0,51.0,-100.00,WSW,246,12.0,16.0,80,0.00,,,-99.99,,2013-07-20 07:30:00,
2013-07-19 23:54:00,57.0,51.0,-100.00,WSW,246,12.0,16.0,80,0.00,,,-99.99,,2013-07-20 07:54:00,